Weather History for Colby, KS

Change the Weather History Date:

Friday, July 19, 2013

  Actual Average (KGLD) Record (KGLD)
Temperature  
Mean Temperature 80 °F 76 °F  
Max Temperature 95 °F 90 °F 106 °F (1934)
Min Temperature 64 °F 62 °F 45 °F (1897)
Degree Days  
Heating Degree Days 0 0  
Month to date heating degree days 0  
Since 1 June heating degree days 37  
Since 1 July heating degree days 0  
Cooling Degree Days 14 11  
Month to date cooling degree days 202  
Year to date cooling degree days 422  
Since 1 June cooling degree days 381  
Growing Degree Days 30 (Base 50)    
Moisture  
Dew Point 64 °F    
Average Humidity 69    
Maximum Humidity 100    
Minimum Humidity 32    
Precipitation  
Precipitation 0.00 in 0.11 in 2.08 in (1985)
Month to date precipitation 2.11  
Year to date precipitation 11.84  
Snow  
Snow 0.00 in 0.00 in - ()
Month to date snowfall 0.0  
Since 1 June snowfall 0.0  
Since 1 July snowfall 0.0  
Snow Depth -    
Sea Level Pressure  
Sea Level Pressure 30.03 in    
Wind  
Wind Speed 10 mph (SSE)    
Max Wind Speed 29 mph    
Max Gust Speed 40 mph    
Visibility 10 miles    
Events Rain    
T = Trace of Precipitation, MM = Missing Value Source: NWS Daily Summary

Daily Weather History Graph

Daily Weather History Graph

Search for Another Location

Airport:

Trip Planner

Search our weather history database for the weather conditions in past years. The results will help you decide how hot, cold, wet, or windy it might be!

Date:

Astronomy

Jul. 19, 2013 Rise Set
Actual Time 6:32 AM CDT 9:07 PM CDT
Civil Twilight 6:01 AM CDT 9:38 PM CDT
Nautical Twilight 5:23 AM CDT 10:17 PM CDT
Astronomical Twilight 4:39 AM CDT 11:00 PM CDT
Moon 6:12 PM CDT (7/19) 3:15 AM CDT (7/19)
Length of Visible Light 15h 36m
Length of Day
14h 34m
Waxing Gibbous, 87% of the Moon is Illuminated
Jul 19
Waxing Gibbous
Jul 22
Full
Jul 29
Last Quarter
Aug 6
New
Aug 14
First Quarter

Hourly Weather History & Observations

Time (CDT) Temp. Heat Index Dew Point Humidity Pressure Visibility Wind Dir Wind Speed Gust Speed Precip Events Conditions
12:15 AM 77.0 °F - 62.6 °F 61% 30.06 in 10.0 mi SSE 12.7 mph - N/A   Clear
12:35 AM 75.2 °F - 62.6 °F 65% 30.05 in 10.0 mi SSE 10.4 mph - N/A   Clear
12:55 AM 73.4 °F - 62.6 °F 69% 30.05 in 10.0 mi SSE 10.4 mph - N/A   Clear
1:15 AM 73.4 °F - 62.6 °F 69% 30.05 in 10.0 mi South 11.5 mph - N/A   Clear
1:35 AM 73.4 °F - 62.6 °F 69% 30.05 in 10.0 mi South 11.5 mph - N/A   Clear
1:55 AM 73.4 °F - 64.4 °F 73% 30.04 in 10.0 mi South 11.5 mph - N/A   Clear
2:15 AM 73.4 °F - 64.4 °F 73% 30.05 in 10.0 mi South 10.4 mph - N/A   Clear
2:35 AM 71.6 °F - 64.4 °F 78% 30.04 in 10.0 mi South 11.5 mph - N/A   Clear
2:55 AM 71.6 °F - 64.4 °F 78% 30.04 in 10.0 mi South 10.4 mph - N/A   Clear
3:15 AM 71.6 °F - 64.4 °F 78% 30.04 in 10.0 mi SSW 9.2 mph - N/A   Clear
3:35 AM 71.6 °F - 64.4 °F 78% 30.04 in 10.0 mi SSW 6.9 mph - N/A   Clear
3:55 AM 69.8 °F - 64.4 °F 83% 30.04 in 10.0 mi SSW 10.4 mph - N/A   Clear
4:15 AM 69.8 °F - 64.4 °F 83% 30.03 in 10.0 mi SSW 5.8 mph - N/A   Clear
4:35 AM 68.0 °F - 62.6 °F 83% 30.02 in 10.0 mi SSW 6.9 mph - N/A   Clear
4:55 AM 68.0 °F - 62.6 °F 83% 30.02 in 10.0 mi South 4.6 mph - N/A   Clear
5:15 AM 68.0 °F - 64.4 °F 88% 30.02 in 10.0 mi South 8.1 mph - N/A   Clear
5:35 AM 68.0 °F - 64.4 °F 88% 30.02 in 10.0 mi SSW 6.9 mph - N/A   Clear
5:55 AM 68.0 °F - 62.6 °F 83% 30.02 in 10.0 mi SSW 5.8 mph - N/A   Clear
6:15 AM 66.2 °F - 62.6 °F 88% 30.02 in 10.0 mi SSW 6.9 mph - N/A   Clear
6:35 AM 64.4 °F - 62.6 °F 94% 30.02 in 10.0 mi SSW 4.6 mph - N/A   Clear
6:55 AM 64.4 °F - 62.6 °F 94% 30.02 in 10.0 mi SSW 5.8 mph - N/A   Clear
7:15 AM 64.4 °F - 62.6 °F 94% 30.02 in 10.0 mi SSW 5.8 mph - N/A   Clear
7:35 AM 66.2 °F - 64.4 °F 94% 30.02 in 10.0 mi SW 5.8 mph - N/A   Clear
7:55 AM 68.0 °F - 64.4 °F 88% 30.02 in 10.0 mi SW 8.1 mph - N/A   Clear
8:15 AM 69.8 °F - 64.4 °F 83% 30.02 in 10.0 mi SW 8.1 mph - N/A   Clear
8:35 AM 73.4 °F - 64.4 °F 73% 30.02 in 10.0 mi WSW 5.8 mph - N/A   Clear
8:55 AM 75.2 °F - 62.6 °F 65% 30.03 in 10.0 mi West 6.9 mph - N/A   Clear
9:15 AM 77.0 °F - 62.6 °F 61% 30.04 in 10.0 mi WNW 5.8 mph - N/A   Clear
9:35 AM 78.8 °F - 62.6 °F 57% 30.04 in 10.0 mi West 3.5 mph - N/A   Clear
9:55 AM 80.6 °F 82.3 °F 64.4 °F 58% 30.04 in 10.0 mi NNW 3.5 mph - N/A   Clear
10:15 AM 82.4 °F 83.4 °F 62.6 °F 51% 30.04 in 10.0 mi East 4.6 mph - N/A   Clear
10:35 AM 84.2 °F 85.0 °F 62.6 °F 48% 30.04 in 10.0 mi East 5.8 mph - N/A   Clear
10:55 AM 86.0 °F 86.6 °F 62.6 °F 45% 30.03 in 10.0 mi East 9.2 mph - N/A   Clear
11:15 AM 86.0 °F 87.3 °F 64.4 °F 48% 30.04 in 10.0 mi ENE 6.9 mph - N/A   Clear
11:35 AM 87.8 °F 89.4 °F 64.4 °F 46% 30.04 in 10.0 mi East 9.2 mph - N/A   Clear
11:55 AM 89.6 °F 91.1 °F 64.4 °F 43% 30.04 in 10.0 mi East 12.7 mph - N/A   Clear
12:15 PM 89.6 °F 90.1 °F 62.6 °F 40% 30.04 in 10.0 mi East 12.7 mph 17.3 mph N/A   Clear
12:35 PM 89.6 °F 90.1 °F 62.6 °F 40% 30.04 in 10.0 mi East 11.5 mph 16.1 mph N/A   Clear
12:55 PM 91.4 °F 92.1 °F 62.6 °F 38% 30.04 in 10.0 mi East 16.1 mph 20.7 mph N/A   Clear
1:15 PM 91.4 °F 92.1 °F 62.6 °F 38% 30.03 in 10.0 mi ENE 9.2 mph - N/A   Clear
1:35 PM 91.4 °F 92.1 °F 62.6 °F 38% 30.03 in 10.0 mi ENE 10.4 mph 19.6 mph N/A   Clear
1:55 PM 93.2 °F 94.1 °F 62.6 °F 36% 30.02 in 10.0 mi East 12.7 mph 18.4 mph N/A   Scattered Clouds
2:15 PM 91.4 °F 92.1 °F 62.6 °F 38% 30.02 in 10.0 mi ENE 12.7 mph 19.6 mph N/A   Scattered Clouds
2:35 PM 91.4 °F 92.1 °F 62.6 °F 38% 30.01 in 10.0 mi ENE 11.5 mph 18.4 mph N/A   Scattered Clouds
2:55 PM 91.4 °F 92.1 °F 62.6 °F 38% 30.01 in 10.0 mi East 11.5 mph 17.3 mph N/A   Scattered Clouds
3:15 PM 95.0 °F 96.0 °F 62.6 °F 34% 30.00 in 10.0 mi East 12.7 mph 18.4 mph N/A   Clear
3:35 PM 91.4 °F 92.1 °F 62.6 °F 38% 29.99 in 10.0 mi East 15.0 mph - N/A   Scattered Clouds
3:55 PM 95.0 °F 96.0 °F 62.6 °F 34% 29.98 in 10.0 mi ESE 8.1 mph 17.3 mph N/A   Scattered Clouds
4:15 PM 95.0 °F 96.0 °F 62.6 °F 34% 29.97 in 10.0 mi ESE 6.9 mph 13.8 mph N/A   Clear
4:35 PM 95.0 °F 96.0 °F 62.6 °F 34% 29.98 in 10.0 mi East 16.1 mph - N/A   Clear
4:55 PM 95.0 °F 95.2 °F 60.8 °F 32% 29.96 in 10.0 mi ESE 12.7 mph 16.1 mph N/A   Clear
5:15 PM 95.0 °F 95.2 °F 60.8 °F 32% 29.96 in 10.0 mi ESE 12.7 mph 18.4 mph N/A   Clear
5:35 PM 93.2 °F 93.3 °F 60.8 °F 34% 29.97 in 10.0 mi East 8.1 mph - N/A   Clear
5:55 PM 82.4 °F 85.4 °F 68.0 °F 62% 29.98 in 10.0 mi North 26.5 mph 35.7 mph N/A   Mostly Cloudy
6:15 PM 78.8 °F - 64.4 °F 61% 29.98 in 7.0 mi NNE 28.8 mph 40.3 mph N/A Rain Light Rain
6:35 PM 69.8 °F - 66.2 °F 88% 29.99 in 2.5 mi NNE 25.3 mph - N/A Rain Light Rain
6:55 PM 71.6 °F - 68.0 °F 88% 30.00 in 10.0 mi NNE 18.4 mph - N/A Rain Light Rain
7:15 PM 71.6 °F - 68.0 °F 88% 30.03 in 10.0 mi North 10.4 mph - N/A Rain Light Rain
7:35 PM 71.6 °F - 68.0 °F 88% 30.07 in 2.0 mi NW 16.1 mph 24.2 mph N/A Rain Heavy Rain
7:55 PM 71.6 °F - 69.8 °F 94% 30.02 in 10.0 mi NNW 24.2 mph 27.6 mph N/A Rain Light Rain
8:15 PM 69.8 °F - 69.8 °F 100% 30.02 in 7.0 mi NNW 21.9 mph 29.9 mph N/A Rain Heavy Rain
8:35 PM 68.0 °F - 68.0 °F 100% 30.06 in 10.0 mi WNW 13.8 mph - N/A Rain Light Rain
8:55 PM 68.0 °F - 68.0 °F 100% 30.08 in 10.0 mi SSW 12.7 mph - N/A Rain Rain
9:15 PM 68.0 °F - 68.0 °F 100% 30.06 in 7.0 mi WSW 15.0 mph - N/A Rain Light Rain
9:35 PM 68.0 °F - 68.0 °F 100% 30.08 in 10.0 mi SSW 10.4 mph - N/A Rain Light Rain
9:55 PM 66.2 °F - 66.2 °F 100% 30.07 in 2.5 mi WSW 13.8 mph - N/A Rain Heavy Rain
10:15 PM 66.2 °F - 64.4 °F 94% 30.07 in 10.0 mi SW 8.1 mph - N/A Rain Light Rain
10:35 PM 68.0 °F - 64.4 °F 88% 30.07 in 10.0 mi South 6.9 mph - N/A Rain Rain
10:55 PM 68.0 °F - 66.2 °F 94% 30.07 in 7.0 mi South 4.6 mph - N/A Rain Rain
11:15 PM 66.2 °F - 66.2 °F 100% 30.08 in 7.0 mi NNW 4.6 mph 10.4 mph N/A Rain Rain
11:35 PM 66.2 °F - 66.2 °F 100% 30.08 in 10.0 mi Calm Calm - N/A Rain Light Rain
11:55 PM 66.2 °F - 66.2 °F 100% 30.07 in 10.0 mi Calm Calm - N/A Rain Light Rain